Decoded Metar for LIPY (FALCONARA (IT-AF in ITALY) (IATA:N/A) | Meteo·Mobile Aviation Weather
aviador You're here:

LIPY Decoded Metar

FALCONARA (IT-AF in ITALY
Report Time2018-10-23 10:50:00
UTC Time2018-10-23 11:40:23
Flight Rules vfr VFR
Wind330° at 13 kt
W.Decomp.*RWY 04: 4.0 kt HW 12.4 kt LCW
W.Rank330° ranks 10
Current wind is above 330° avg. (7.8)
Visibility9999 m
Phenomena:N/A
Clouds:N/A
Expected CloudBase > 3,600 ft AGL from Temp-Dew spread
CeilingNone
Temp18°C (ISA +3)
Dew Point09°C (56% RH)
AAT13.1°C
QNH1022 hPa
Density Alt246 ft
Elevation33 ft
Report Wrong Elevation
Raw Report
LIPY 231050Z 33013KT CAVOK 18/09 Q1022=

Extra information for LIPY:More info

Metar Taf Metar & Taf Last 4 Metars F.Rules Stats Wind Profile Meteogram Temp Stats Airport Information Weather charts Add Link Nearby VenuesMetar ALERT Operation Metar Decoded Social comments